createdAt,value
2023-02-22T04:47:41.716Z,6.40
2023-02-22T04:50:09.247Z,6.40
2023-02-22T04:52:36.214Z,6.50
2023-02-22T04:55:03.290Z,6.60
2023-02-22T04:57:30.277Z,6.60
2023-02-22T04:59:57.307Z,6.60
2023-02-22T05:02:24.285Z,6.60
2023-02-22T05:04:51.259Z,6.60
2023-02-22T05:07:18.214Z,6.50
2023-02-22T05:09:45.128Z,6.60
2023-02-22T05:12:12.025Z,6.50
2023-02-22T05:14:38.969Z,6.60
2023-02-22T05:17:05.981Z,6.60
2023-02-22T05:19:32.983Z,6.60
2023-02-22T05:22:00.169Z,6.60
2023-02-22T05:24:27.091Z,6.60
2023-02-22T05:26:54.036Z,6.60
2023-02-22T05:29:21.144Z,6.50
2023-02-22T05:31:48.166Z,6.50
2023-02-22T05:34:15.972Z,6.50
2023-02-22T05:36:43.063Z,6.50
2023-02-22T05:39:10.006Z,6.40
2023-02-22T05:41:36.978Z,6.40
2023-02-22T05:44:04.290Z,6.40
2023-02-22T05:46:31.264Z,6.30
2023-02-22T05:48:59.321Z,6.30
2023-02-22T05:51:26.327Z,6.20
2023-02-22T05:53:53.280Z,6.30
2023-02-22T05:56:21.690Z,6.40
2023-02-22T05:58:48.618Z,6.30
2023-02-22T06:01:15.693Z,6.20
2023-02-22T06:03:42.721Z,6.40
2023-02-22T06:06:10.373Z,6.40
2023-02-22T06:08:37.307Z,6.30
2023-02-22T06:11:04.332Z,6.30
2023-02-22T06:13:31.253Z,6.30
2023-02-22T06:15:59.223Z,6.30
2023-02-22T06:18:26.741Z,6.20
2023-02-22T06:20:53.647Z,6.20
2023-02-22T06:23:20.579Z,6.30
2023-02-22T06:25:48.197Z,6.40
2023-02-22T06:28:15.738Z,6.40
2023-02-22T06:30:43.054Z,6.50
2023-02-22T06:33:10.616Z,6.40
2023-02-22T06:35:37.487Z,6.30
2023-02-22T06:38:04.391Z,6.20
2023-02-22T06:40:31.289Z,6.20
2023-02-22T06:42:59.783Z,6.20
2023-02-22T06:45:26.822Z,6.30
2023-02-22T06:47:54.401Z,6.20
2023-02-22T06:50:23.584Z,6.30
2023-02-22T06:52:50.840Z,6.30
2023-02-22T06:55:21.728Z,6.40
2023-02-22T06:57:48.686Z,6.50
2023-02-22T07:00:16.751Z,6.60
2023-02-22T07:02:43.682Z,6.70
2023-02-22T07:05:12.357Z,6.70
2023-02-22T07:07:39.702Z,6.70
2023-02-22T07:10:08.138Z,6.70
2023-02-22T07:12:35.344Z,6.60
2023-02-22T07:15:02.311Z,6.60
2023-02-22T07:17:29.255Z,6.50
2023-02-22T07:19:56.133Z,6.50
2023-02-22T07:22:23.064Z,6.50
2023-02-22T07:24:50.003Z,6.60
2023-02-22T07:27:17.629Z,6.60
2023-02-22T07:29:44.583Z,6.60
2023-02-22T07:32:11.669Z,6.60
2023-02-22T07:34:38.626Z,6.60
2023-02-22T07:37:05.494Z,6.70
2023-02-22T07:39:33.574Z,6.80
2023-02-22T07:42:00.634Z,6.80
2023-02-22T07:44:27.538Z,6.80
2023-02-22T07:46:54.455Z,6.90
2023-02-22T07:49:21.391Z,6.90
2023-02-22T07:51:48.273Z,6.80
2023-02-22T07:54:15.207Z,6.90
2023-02-22T07:56:46.180Z,6.90
2023-02-22T07:59:13.365Z,6.90
2023-02-22T08:01:40.667Z,6.90
2023-02-22T08:04:07.977Z,7.00
2023-02-22T08:06:34.980Z,7.00
2023-02-22T08:09:01.957Z,7.10
2023-02-22T08:11:28.896Z,7.10
2023-02-22T08:13:55.840Z,7.10
2023-02-22T08:16:22.721Z,7.20
2023-02-22T08:18:49.685Z,7.20
2023-02-22T08:21:17.108Z,7.30
2023-02-22T08:23:44.216Z,7.30
2023-02-22T08:26:15.479Z,7.30
2023-02-22T08:28:43.111Z,7.30
2023-02-22T08:31:10.598Z,7.30
2023-02-22T08:33:37.645Z,7.40
2023-02-22T08:36:04.799Z,7.50
2023-02-22T08:38:33.970Z,7.50
2023-02-22T08:41:00.917Z,7.60
2023-02-22T08:43:28.589Z,7.60
2023-02-22T08:45:57.457Z,7.70
2023-02-22T08:48:24.834Z,7.80
2023-02-22T08:50:51.828Z,7.80
2023-02-22T08:53:19.004Z,7.90
2023-02-22T08:55:45.948Z,7.90
2023-02-22T08:58:13.293Z,8.00
2023-02-22T09:00:40.920Z,8.00
2023-02-22T09:03:09.437Z,8.10
2023-02-22T09:05:36.360Z,8.20
2023-02-22T09:08:03.680Z,8.20
2023-02-22T09:10:31.502Z,8.30
2023-02-22T09:13:00.782Z,8.40
2023-02-22T09:15:28.419Z,8.50
2023-02-22T09:17:55.836Z,8.60
2023-02-22T09:20:23.526Z,8.70
2023-02-22T09:22:50.739Z,8.70
2023-02-22T09:25:18.250Z,8.80
2023-02-22T09:27:47.917Z,8.90
2023-02-22T09:30:31.947Z,8.90
2023-02-22T09:33:03.451Z,9.00
2023-02-22T09:35:30.586Z,9.00
2023-02-22T09:37:58.456Z,9.10
2023-02-22T09:40:30.248Z,9.10
2023-02-22T09:43:16.805Z,9.10
2023-02-22T09:45:55.931Z,9.20
2023-02-22T09:48:23.135Z,9.30
2023-02-22T09:50:51.064Z,9.30
2023-02-22T09:53:29.487Z,9.40
2023-02-22T09:55:59.194Z,9.40
2023-02-22T09:58:35.453Z,9.50
2023-02-22T10:01:22.887Z,9.50
2023-02-22T10:03:55.822Z,9.50
2023-02-22T10:06:24.752Z,9.60
2023-02-22T10:08:57.193Z,9.60
2023-02-22T10:11:34.740Z,9.70
2023-02-22T10:14:27.519Z,9.90
2023-02-22T10:16:54.459Z,9.80
2023-02-22T10:19:21.371Z,9.90
2023-02-22T10:21:48.245Z,10.00
2023-02-22T10:24:47.483Z,10.00
2023-02-22T10:27:22.569Z,10.10
2023-02-22T10:29:52.401Z,10.10
2023-02-22T10:32:21.731Z,10.20
2023-02-22T10:34:51.390Z,10.20
2023-02-22T10:37:29.074Z,10.20
2023-02-22T10:40:11.518Z,10.30
2023-02-22T10:42:38.610Z,10.30
2023-02-22T10:45:23.596Z,10.40
2023-02-22T10:47:51.109Z,10.40
2023-02-22T10:50:20.848Z,10.50
2023-02-22T10:52:48.187Z,10.50
2023-02-22T10:55:16.129Z,10.60
2023-02-22T10:57:47.376Z,10.70
2023-02-22T11:00:29.856Z,10.70
2023-02-22T11:03:00.897Z,10.80
2023-02-22T11:05:38.149Z,10.80
2023-02-22T11:08:25.624Z,10.80
2023-02-22T11:10:53.703Z,10.90
2023-02-22T11:13:25.846Z,11.00
2023-02-22T11:15:53.706Z,11.10
2023-02-22T11:18:29.573Z,11.20
2023-02-22T11:21:04.579Z,11.30
2023-02-22T11:23:31.762Z,11.30
2023-02-22T11:26:05.332Z,11.40
2023-02-22T11:28:32.934Z,11.50
2023-02-22T11:31:20.684Z,11.60
2023-02-22T11:36:31.182Z,11.80
2023-02-22T11:39:00.773Z,11.90
2023-02-22T11:41:32.160Z,11.90
2023-02-22T11:44:22.241Z,12.00
2023-02-22T11:46:49.453Z,12.10
2023-02-22T11:49:17.377Z,12.20
2023-02-22T11:51:50.284Z,12.30
2023-02-22T11:54:35.716Z,12.30
2023-02-22T11:57:21.973Z,12.30
2023-02-22T11:59:57.802Z,12.50
2023-02-22T12:02:51.866Z,12.60
2023-02-22T12:05:37.209Z,12.60
2023-02-22T12:08:19.605Z,12.70
2023-02-22T12:10:55.780Z,12.80
2023-02-22T12:13:28.508Z,13.00
2023-02-22T12:16:01.670Z,13.00
2023-02-22T12:18:28.619Z,13.10
2023-02-22T12:20:59.859Z,13.20
2023-02-22T12:23:33.366Z,13.20
2023-02-22T12:26:03.131Z,13.30
2023-02-22T12:28:33.604Z,13.40
2023-02-22T12:31:03.334Z,13.40
2023-02-22T12:33:37.201Z,13.50
2023-02-22T12:36:04.597Z,13.60
2023-02-22T12:38:37.195Z,13.70
2023-02-22T12:41:15.407Z,13.70
2023-02-22T12:43:54.152Z,13.80
2023-02-22T12:46:26.976Z,13.80
2023-02-22T12:49:13.819Z,13.90
2023-02-22T12:51:54.657Z,14.00
2023-02-22T12:54:37.854Z,14.10
2023-02-22T12:57:25.298Z,14.20
2023-02-22T12:59:55.383Z,14.30
2023-02-22T13:02:38.449Z,14.40
2023-02-22T13:05:05.725Z,14.50
2023-02-22T13:07:51.172Z,14.50
2023-02-22T13:10:33.988Z,14.60
2023-02-22T13:13:03.881Z,14.60
2023-02-22T13:15:43.562Z,14.70
2023-02-22T13:18:17.277Z,14.70
2023-02-22T13:20:44.733Z,14.70
2023-02-22T13:23:17.494Z,14.80
2023-02-22T13:25:57.988Z,14.80
2023-02-22T13:28:30.579Z,14.80
2023-02-22T13:31:00.481Z,14.90
2023-02-22T13:33:39.022Z,14.90
2023-02-22T13:36:32.722Z,15.00
2023-02-22T13:39:18.161Z,15.00
2023-02-22T13:42:08.420Z,15.10
2023-02-22T13:44:53.988Z,15.00
2023-02-22T13:47:33.556Z,15.10
2023-02-22T13:50:09.450Z,15.10
2023-02-22T13:52:38.467Z,15.20
2023-02-22T13:55:11.220Z,15.20
2023-02-22T13:57:48.176Z,15.20
2023-02-22T14:00:15.161Z,15.30
2023-02-22T14:02:50.973Z,15.30
2023-02-22T14:05:36.635Z,15.40
2023-02-22T14:08:03.701Z,15.40
2023-02-22T14:10:46.096Z,15.40
2023-02-22T14:13:14.173Z,15.40
2023-02-22T14:16:06.895Z,15.40
2023-02-22T14:18:39.558Z,15.50
2023-02-22T14:21:07.948Z,15.50
2023-02-22T14:23:34.837Z,15.50
2023-02-22T14:26:11.138Z,15.50
2023-02-22T14:28:38.261Z,15.50
2023-02-22T14:31:35.998Z,15.50
2023-02-22T14:34:04.136Z,15.50
2023-02-22T14:36:36.296Z,15.60
2023-02-22T14:39:07.695Z,15.60
2023-02-22T14:41:36.922Z,15.60
2023-02-22T14:44:04.342Z,15.70
2023-02-22T14:46:34.663Z,15.70
2023-02-22T14:49:05.354Z,15.60
2023-02-22T14:51:38.501Z,15.60
2023-02-22T14:54:42.206Z,15.70
2023-02-22T14:57:14.892Z,15.60
2023-02-22T14:59:52.591Z,15.60
2023-02-22T15:02:20.631Z,15.60
2023-02-22T15:04:51.274Z,15.60
2023-02-22T15:07:27.494Z,15.60
2023-02-22T15:10:20.546Z,15.60
2023-02-22T15:12:54.786Z,15.50
2023-02-22T15:15:22.994Z,15.60
2023-02-22T15:17:54.030Z,15.50
2023-02-22T15:20:21.501Z,15.50
2023-02-22T15:22:49.818Z,15.50
2023-02-22T15:25:23.875Z,15.50
2023-02-22T15:27:50.817Z,15.50
2023-02-22T15:30:20.845Z,15.50
2023-02-22T15:33:03.108Z,15.50
2023-02-22T15:35:31.359Z,15.40
2023-02-22T15:38:00.220Z,15.30
2023-02-22T15:40:32.984Z,15.30
2023-02-22T15:43:01.313Z,15.30
2023-02-22T15:45:28.720Z,15.30
2023-02-22T15:47:56.001Z,15.30
2023-02-22T15:50:25.802Z,15.30
2023-02-22T15:53:09.274Z,15.30
2023-02-22T15:55:37.901Z,15.30
2023-02-22T15:58:12.638Z,15.30
2023-02-22T16:00:41.496Z,15.30
2023-02-22T16:03:09.836Z,15.30
2023-02-22T16:05:47.357Z,15.30
2023-02-22T16:08:17.838Z,15.30
2023-02-22T16:10:49.642Z,15.30
2023-02-22T16:13:31.003Z,15.40
2023-02-22T16:16:01.832Z,15.30
2023-02-22T16:18:36.235Z,15.30
2023-02-22T16:21:12.902Z,15.30
2023-02-22T16:24:10.313Z,15.30
2023-02-22T16:26:41.963Z,15.20
2023-02-22T16:29:08.970Z,15.20
2023-02-22T16:31:37.494Z,15.30
2023-02-22T16:34:05.650Z,15.20
2023-02-22T16:36:40.163Z,15.00
2023-02-22T16:39:07.940Z,14.90
2023-02-22T16:41:34.938Z,14.90
2023-02-22T16:44:02.692Z,14.90
2023-02-22T16:46:29.684Z,15.00
2023-02-22T16:48:59.780Z,14.90
2023-02-22T16:51:27.674Z,14.90
2023-02-22T16:53:55.760Z,14.90
2023-02-22T16:56:25.399Z,14.80
2023-02-22T16:58:53.466Z,14.70
2023-02-22T17:01:23.224Z,14.80
2023-02-22T17:03:50.780Z,14.60
2023-02-22T17:06:18.022Z,14.60
2023-02-22T17:08:45.332Z,14.60
2023-02-22T17:11:13.601Z,14.60
2023-02-22T17:13:40.930Z,14.60
2023-02-22T17:16:13.390Z,14.60
2023-02-22T17:18:40.731Z,14.60
2023-02-22T17:21:09.478Z,14.60
2023-02-22T17:23:36.349Z,14.60
2023-02-22T17:26:03.568Z,14.50
2023-02-22T17:28:30.931Z,14.50
2023-02-22T17:31:02.063Z,14.50
2023-02-22T17:33:30.955Z,14.50
2023-02-22T17:35:58.422Z,14.50
2023-02-22T17:38:28.757Z,14.40
2023-02-22T17:40:56.383Z,14.40
2023-02-22T17:43:24.946Z,14.40
2023-02-22T17:45:53.826Z,14.30
2023-02-22T17:48:22.899Z,14.20
2023-02-22T17:50:51.650Z,14.20
2023-02-22T17:53:21.718Z,14.20
2023-02-22T17:55:48.782Z,14.20
2023-02-22T17:58:15.849Z,14.20
2023-02-22T18:00:44.587Z,14.10
2023-02-22T18:03:13.244Z,14.10
2023-02-22T18:05:42.155Z,14.20
2023-02-22T18:08:09.072Z,14.20
2023-02-22T18:10:36.298Z,14.10
2023-02-22T18:13:04.084Z,14.10
2023-02-22T18:15:35.451Z,14.10
2023-02-22T18:18:05.034Z,14.10
2023-02-22T18:20:38.089Z,14.10
2023-02-22T18:23:07.445Z,14.10
2023-02-22T18:25:35.580Z,14.00
2023-02-22T18:28:03.216Z,14.10
2023-02-22T18:30:30.223Z,14.00
2023-02-22T18:32:57.290Z,14.10
2023-02-22T18:35:24.306Z,14.00
2023-02-22T18:37:51.260Z,14.10
2023-02-22T18:40:18.916Z,14.00
2023-02-22T18:42:46.741Z,13.90
2023-02-22T18:45:13.699Z,13.90
2023-02-22T18:47:42.132Z,13.90
2023-02-22T18:50:10.027Z,13.80
2023-02-22T18:52:45.642Z,13.80
2023-02-22T18:55:17.355Z,13.90
2023-02-22T18:57:44.666Z,13.80
2023-02-22T19:00:12.666Z,13.90
2023-02-22T19:02:43.368Z,13.80
2023-02-22T19:05:11.098Z,13.70
2023-02-22T19:07:38.010Z,13.70
2023-02-22T19:10:05.646Z,13.60
2023-02-22T19:12:33.652Z,13.60
2023-02-22T19:15:00.922Z,13.60
2023-02-22T19:17:28.618Z,13.50
2023-02-22T19:19:55.837Z,13.50
2023-02-22T19:22:25.896Z,13.50
2023-02-22T19:24:54.077Z,13.50
2023-02-22T19:27:21.436Z,13.50
2023-02-22T19:29:49.421Z,13.50
2023-02-22T19:32:17.354Z,13.50
2023-02-22T19:34:44.582Z,13.40
2023-02-22T19:37:12.887Z,13.40
2023-02-22T19:39:42.534Z,13.40
2023-02-22T19:42:10.218Z,13.40
2023-02-22T19:44:37.403Z,13.40
2023-02-22T19:47:09.041Z,13.30
2023-02-22T19:49:37.223Z,13.30
2023-02-22T19:52:06.335Z,13.30
2023-02-22T19:54:33.626Z,13.30
2023-02-22T19:57:00.634Z,13.30
2023-02-22T19:59:28.151Z,13.30
2023-02-22T20:01:56.004Z,13.30
2023-02-22T20:04:23.110Z,13.30
2023-02-22T20:06:53.857Z,13.30
2023-02-22T20:09:23.268Z,13.30
2023-02-22T20:11:53.514Z,13.30
2023-02-22T20:14:23.298Z,13.20
2023-02-22T20:16:50.713Z,13.20
2023-02-22T20:19:17.687Z,13.20
2023-02-22T20:21:44.681Z,13.00
2023-02-22T20:24:21.007Z,13.20
2023-02-22T20:26:48.424Z,13.10
2023-02-22T20:29:15.877Z,13.10
2023-02-22T20:31:43.270Z,13.10
2023-02-22T20:34:10.740Z,13.10
2023-02-22T20:36:38.681Z,13.10
2023-02-22T20:39:13.328Z,13.10
2023-02-22T20:41:41.826Z,13.10
2023-02-22T20:44:11.038Z,13.00
2023-02-22T20:46:38.037Z,13.00
2023-02-22T20:49:07.349Z,13.00
2023-02-22T20:51:34.777Z,13.00
2023-02-22T20:54:01.811Z,13.00
2023-02-22T20:56:29.681Z,13.00
2023-02-22T20:58:57.430Z,13.00
2023-02-22T21:01:24.436Z,13.00
2023-02-22T21:03:51.543Z,13.00
2023-02-22T21:06:21.213Z,12.90
2023-02-22T21:08:53.640Z,12.90
2023-02-22T21:11:21.181Z,13.00
2023-02-22T21:13:48.523Z,13.00
2023-02-22T21:16:20.067Z,13.00
2023-02-22T21:18:49.333Z,13.00
2023-02-22T21:21:16.718Z,13.00
2023-02-22T21:23:49.550Z,12.90
2023-02-22T21:26:17.908Z,12.90
2023-02-22T21:28:52.279Z,12.90
2023-02-22T21:31:20.947Z,13.00
2023-02-22T21:33:49.101Z,12.90
2023-02-22T21:36:16.109Z,12.90
2023-02-22T21:38:44.326Z,12.90
2023-02-22T21:41:12.195Z,12.90
2023-02-22T21:43:40.016Z,12.90
2023-02-22T21:46:07.677Z,12.90
2023-02-22T21:48:34.794Z,12.90
2023-02-22T21:51:08.838Z,12.80
2023-02-22T21:53:36.354Z,12.80
2023-02-22T21:56:04.296Z,12.80
2023-02-22T21:58:31.369Z,12.80
2023-02-22T22:01:03.960Z,12.80
2023-02-22T22:03:30.877Z,12.80
2023-02-22T22:06:00.191Z,12.80
2023-02-22T22:08:30.643Z,12.80
2023-02-22T22:10:58.433Z,12.70
2023-02-22T22:13:28.080Z,12.70
2023-02-22T22:15:55.129Z,12.70
2023-02-22T22:18:22.088Z,12.70
2023-02-22T22:20:51.748Z,12.60
2023-02-22T22:23:18.855Z,12.70
2023-02-22T22:25:45.735Z,12.60
2023-02-22T22:28:12.657Z,12.60
2023-02-22T22:30:39.640Z,12.60
2023-02-22T22:33:11.129Z,12.60
2023-02-22T22:35:38.689Z,12.60
2023-02-22T22:38:06.581Z,12.60
2023-02-22T22:40:34.397Z,12.60
2023-02-22T22:43:01.333Z,12.60
2023-02-22T22:45:28.309Z,12.60
2023-02-22T22:47:55.437Z,12.60
2023-02-22T22:50:26.311Z,12.60
2023-02-22T22:52:55.584Z,12.70
2023-02-22T22:55:24.263Z,12.70
2023-02-22T22:57:53.947Z,12.70
2023-02-22T23:00:34.805Z,12.70
2023-02-22T23:03:01.820Z,12.70
2023-02-22T23:05:29.238Z,12.70
2023-02-22T23:07:56.759Z,12.70
2023-02-22T23:10:27.457Z,12.70
2023-02-22T23:12:55.499Z,12.70
2023-02-22T23:15:23.031Z,12.60
2023-02-22T23:17:53.518Z,12.60
2023-02-22T23:20:22.623Z,12.60
2023-02-22T23:22:49.609Z,12.60
2023-02-22T23:25:18.364Z,12.60
2023-02-22T23:27:45.918Z,12.60
2023-02-22T23:30:14.946Z,12.70
2023-02-22T23:32:42.335Z,12.70
2023-02-22T23:35:11.291Z,12.70
2023-02-22T23:37:39.858Z,12.80
2023-02-22T23:40:17.187Z,12.80
2023-02-22T23:42:50.670Z,12.90
2023-02-22T23:45:23.486Z,12.90
2023-02-22T23:47:54.360Z,13.00
2023-02-22T23:50:28.915Z,12.90
2023-02-22T23:52:56.986Z,13.00
2023-02-22T23:55:24.877Z,13.00
2023-02-22T23:57:52.203Z,13.00
